createdAt,value
2023-04-27T00:00:18.169Z,4.19
2023-04-27T00:02:52.616Z,4.29
2023-04-27T00:05:25.666Z,4.32
2023-04-27T00:07:58.801Z,4.13
2023-04-27T00:10:31.870Z,4.10
2023-04-27T00:13:04.746Z,3.64
2023-04-27T00:15:37.773Z,3.63
2023-04-27T00:18:12.111Z,3.67
2023-04-27T00:20:44.965Z,4.05
2023-04-27T00:23:17.961Z,3.89
2023-04-27T00:25:50.756Z,4.11
2023-04-27T00:28:23.581Z,4.18
2023-04-27T00:30:56.358Z,4.19
2023-04-27T00:33:30.535Z,3.62
2023-04-27T00:36:03.825Z,4.00
2023-04-27T00:38:36.970Z,4.19
2023-04-27T00:41:11.365Z,3.48
2023-04-27T00:43:45.977Z,3.15
2023-04-27T00:46:19.738Z,3.45
2023-04-27T00:48:54.410Z,3.75
2023-04-27T00:51:30.143Z,3.96
2023-04-27T00:54:03.243Z,4.12
2023-04-27T00:56:37.807Z,3.73
2023-04-27T00:59:10.762Z,3.51
2023-04-27T01:01:43.777Z,3.84
2023-04-27T01:04:18.971Z,3.39
2023-04-27T01:06:51.855Z,3.41
2023-04-27T01:09:24.790Z,3.83
2023-04-27T01:11:58.260Z,3.97
2023-04-27T01:14:31.152Z,3.83
2023-04-27T01:17:04.002Z,3.47
2023-04-27T01:19:38.206Z,3.86
2023-04-27T01:22:11.037Z,3.53
2023-04-27T01:24:45.543Z,3.57
2023-04-27T01:27:18.411Z,3.82
2023-04-27T01:29:51.277Z,3.30
2023-04-27T01:32:24.165Z,3.43
2023-04-27T01:34:58.785Z,3.80
2023-04-27T01:37:32.408Z,3.92
2023-04-27T01:40:08.290Z,3.96
2023-04-27T01:42:41.360Z,3.82
2023-04-27T01:45:14.704Z,4.00
2023-04-27T01:47:47.571Z,3.97
2023-04-27T01:50:20.869Z,3.82
2023-04-27T01:52:53.699Z,3.83
2023-04-27T01:55:29.133Z,3.97
2023-04-27T01:58:01.904Z,4.01
2023-04-27T02:00:35.628Z,3.94
2023-04-27T02:03:08.727Z,3.91
2023-04-27T02:05:41.808Z,3.96
2023-04-27T02:08:14.699Z,3.70
2023-04-27T02:10:48.916Z,3.93
2023-04-27T02:13:23.062Z,3.86
2023-04-27T02:15:56.215Z,3.67
2023-04-27T02:18:29.311Z,3.62
2023-04-27T02:21:02.103Z,3.35
2023-04-27T02:23:35.694Z,3.40
2023-04-27T02:26:46.687Z,3.47
2023-04-27T02:29:19.663Z,3.79
2023-04-27T02:31:53.014Z,3.15
2023-04-27T02:34:25.984Z,3.36
2023-04-27T02:36:59.033Z,3.00
2023-04-27T02:39:32.222Z,3.15
2023-04-27T02:42:06.628Z,3.06
2023-04-27T02:44:39.414Z,3.14
2023-04-27T02:47:12.480Z,3.47
2023-04-27T02:49:45.429Z,3.55
2023-04-27T02:52:18.212Z,3.72
2023-04-27T02:54:50.959Z,3.82
2023-04-27T02:57:25.089Z,3.76
2023-04-27T02:59:58.213Z,3.67
2023-04-27T03:02:31.048Z,3.80
2023-04-27T03:05:05.547Z,3.80
2023-04-27T03:07:38.296Z,3.72
2023-04-27T03:10:11.688Z,3.59
2023-04-27T03:12:45.809Z,3.75
2023-04-27T03:15:18.758Z,3.59
2023-04-27T03:17:51.799Z,3.49
2023-04-27T03:20:24.645Z,3.49
2023-04-27T03:23:00.001Z,3.55
2023-04-27T03:25:32.792Z,3.53
2023-04-27T03:28:07.843Z,3.50
2023-04-27T03:30:42.870Z,3.44
2023-04-27T03:33:16.129Z,3.41
2023-04-27T03:35:56.193Z,3.40
2023-04-27T03:38:29.438Z,3.50
2023-04-27T03:41:02.554Z,3.31
2023-04-27T03:43:36.994Z,2.88
2023-04-27T03:46:09.851Z,3.06
2023-04-27T03:48:44.129Z,3.15
2023-04-27T03:51:17.223Z,3.15
2023-04-27T03:53:52.021Z,3.23
2023-04-27T03:56:24.846Z,3.51
2023-04-27T03:58:58.974Z,3.24
2023-04-27T04:01:39.916Z,3.38
2023-04-27T04:04:13.091Z,3.37
2023-04-27T04:06:45.909Z,3.18
2023-04-27T04:09:19.098Z,2.86
2023-04-27T04:11:52.754Z,3.07
2023-04-27T04:14:28.612Z,3.13
2023-04-27T04:17:01.382Z,3.07
2023-04-27T04:19:35.356Z,2.89
2023-04-27T04:22:08.132Z,3.12
2023-04-27T04:24:41.122Z,3.03
2023-04-27T04:27:14.087Z,2.89
2023-04-27T04:29:48.265Z,2.94
2023-04-27T04:32:22.825Z,2.71
2023-04-27T04:34:56.448Z,2.60
2023-04-27T04:37:29.537Z,2.65
2023-04-27T04:40:09.185Z,2.67
2023-04-27T04:42:42.768Z,2.56
2023-04-27T04:45:17.337Z,2.83
2023-04-27T04:47:50.473Z,2.82
2023-04-27T04:50:23.424Z,2.70
2023-04-27T04:52:57.794Z,3.12
2023-04-27T04:55:30.736Z,3.41
2023-04-27T04:58:03.532Z,3.03
2023-04-27T05:00:38.294Z,3.00
2023-04-27T05:03:11.161Z,3.61
2023-04-27T05:05:44.061Z,3.03
2023-04-27T05:08:17.487Z,3.01
2023-04-27T05:10:51.800Z,3.17
2023-04-27T05:13:25.676Z,3.37
2023-04-27T05:16:00.398Z,3.76
2023-04-27T05:18:33.676Z,3.61
2023-04-27T05:21:06.592Z,3.86
2023-04-27T05:23:39.415Z,4.14
2023-04-27T05:26:13.134Z,4.05
2023-04-27T05:28:47.060Z,4.13
2023-04-27T05:31:21.601Z,3.97
2023-04-27T05:33:54.478Z,3.77
2023-04-27T05:36:28.520Z,4.37
2023-04-27T05:39:01.559Z,4.05
2023-04-27T05:41:34.320Z,3.89
2023-04-27T05:44:07.593Z,3.99
2023-04-27T05:46:41.896Z,4.09
2023-04-27T05:49:14.916Z,4.72
2023-04-27T05:51:48.179Z,4.76
2023-04-27T05:54:22.122Z,4.86
2023-04-27T05:56:54.952Z,4.77
2023-04-27T05:59:29.305Z,5.33
2023-04-27T06:02:03.564Z,4.94
2023-04-27T06:04:37.212Z,4.93
2023-04-27T06:07:10.432Z,5.46
2023-04-27T06:09:43.381Z,5.14
2023-04-27T06:12:16.731Z,5.73
2023-04-27T06:14:49.557Z,5.48
2023-04-27T06:17:23.950Z,6.20
2023-04-27T06:19:56.697Z,5.75
2023-04-27T06:22:29.525Z,5.57
2023-04-27T06:25:02.375Z,5.77
2023-04-27T06:27:35.245Z,5.87
2023-04-27T06:30:09.483Z,5.97
2023-04-27T06:32:43.691Z,6.21
2023-04-27T06:35:16.674Z,6.61
2023-04-27T06:37:49.574Z,6.48
2023-04-27T06:40:22.692Z,6.28
2023-04-27T06:42:55.591Z,6.46
2023-04-27T06:45:28.425Z,6.45
2023-04-27T06:48:02.791Z,7.07
2023-04-27T06:50:35.592Z,7.57
2023-04-27T06:53:08.439Z,7.41
2023-04-27T06:55:43.951Z,7.50
2023-04-27T06:58:18.138Z,7.18
2023-04-27T07:00:50.998Z,7.84
2023-04-27T07:03:25.185Z,7.27
2023-04-27T07:05:59.204Z,7.97
2023-04-27T07:08:31.987Z,8.78
2023-04-27T07:11:04.810Z,8.89
2023-04-27T07:13:37.617Z,8.80
2023-04-27T07:16:10.468Z,8.63
2023-04-27T07:18:44.653Z,9.04
2023-04-27T07:21:17.453Z,9.25
2023-04-27T07:23:50.286Z,9.43
2023-04-27T07:26:24.707Z,9.37
2023-04-27T07:28:57.505Z,9.82
2023-04-27T07:31:30.327Z,9.67
2023-04-27T07:34:04.922Z,10.25
2023-04-27T07:36:38.227Z,10.80
2023-04-27T07:39:11.626Z,10.73
2023-04-27T07:41:44.553Z,10.37
2023-04-27T07:44:18.446Z,11.08
2023-04-27T07:46:54.116Z,11.39
2023-04-27T07:49:28.268Z,11.51
2023-04-27T07:52:01.248Z,11.84
2023-04-27T07:54:34.071Z,11.95
2023-04-27T07:57:09.637Z,11.92
2023-04-27T07:59:42.489Z,12.34
2023-04-27T08:02:19.674Z,11.74
2023-04-27T08:04:54.697Z,12.08
2023-04-27T08:07:28.162Z,11.91
2023-04-27T08:10:01.168Z,12.64
2023-04-27T08:12:34.054Z,12.66
2023-04-27T08:15:08.226Z,12.46
2023-04-27T08:17:42.071Z,13.09
2023-04-27T08:20:16.441Z,13.19
2023-04-27T08:22:51.926Z,13.00
2023-04-27T08:25:24.847Z,13.88
2023-04-27T08:27:58.189Z,13.92
2023-04-27T08:30:30.933Z,13.61
2023-04-27T08:33:03.920Z,12.88
2023-04-27T08:35:38.201Z,13.19
2023-04-27T08:38:11.159Z,13.87
2023-04-27T08:40:55.692Z,13.69
2023-04-27T08:43:35.317Z,14.25
2023-04-27T08:46:08.101Z,14.38
2023-04-27T08:48:40.942Z,14.15
2023-04-27T08:51:16.285Z,14.28
2023-04-27T08:53:51.397Z,13.02
2023-04-27T08:56:27.566Z,13.94
2023-04-27T08:59:02.344Z,14.44
2023-04-27T09:01:35.344Z,15.38
2023-04-27T09:04:08.489Z,15.10
2023-04-27T09:06:43.093Z,14.80
2023-04-27T09:09:23.888Z,15.20
2023-04-27T09:11:56.854Z,15.20
2023-04-27T09:14:30.834Z,14.63
2023-04-27T09:17:03.581Z,14.69
2023-04-27T09:19:36.414Z,15.20
2023-04-27T09:22:13.679Z,14.95
2023-04-27T09:24:52.137Z,15.65
2023-04-27T09:27:24.930Z,15.33
2023-04-27T09:29:57.918Z,16.04
2023-04-27T09:32:30.701Z,15.84
2023-04-27T09:35:04.059Z,15.13
2023-04-27T09:37:38.271Z,15.17
2023-04-27T09:40:11.776Z,15.64
2023-04-27T09:42:44.704Z,16.32
2023-04-27T09:45:18.762Z,15.84
2023-04-27T09:47:52.081Z,16.62
2023-04-27T09:50:24.865Z,16.65
2023-04-27T09:52:59.316Z,16.85
2023-04-27T09:55:35.635Z,16.31
2023-04-27T09:58:28.857Z,17.16
2023-04-27T10:01:09.276Z,17.08
2023-04-27T10:03:56.868Z,16.99
2023-04-27T10:06:58.856Z,17.92
2023-04-27T10:09:38.084Z,17.45
2023-04-27T10:12:19.758Z,17.38
2023-04-27T10:14:54.069Z,18.22
2023-04-27T10:17:31.264Z,17.57
2023-04-27T10:20:07.275Z,17.36
2023-04-27T10:22:40.967Z,17.26
2023-04-27T10:25:18.791Z,17.44
2023-04-27T10:27:53.297Z,17.27
2023-04-27T10:30:27.727Z,18.41
2023-04-27T10:33:05.642Z,18.79
2023-04-27T10:35:40.487Z,17.10
2023-04-27T10:38:18.182Z,17.12
2023-04-27T10:40:57.810Z,18.71
2023-04-27T10:43:31.942Z,17.90
2023-04-27T10:46:12.551Z,18.29
2023-04-27T10:48:46.109Z,18.61
2023-04-27T10:51:18.937Z,18.51
2023-04-27T10:53:53.925Z,18.09
2023-04-27T10:56:28.166Z,18.07
2023-04-27T10:59:04.203Z,18.76
2023-04-27T11:01:38.124Z,17.98
2023-04-27T11:04:10.950Z,17.67
2023-04-27T11:06:45.996Z,17.97
2023-04-27T11:09:27.038Z,18.45
2023-04-27T11:12:01.832Z,17.93
2023-04-27T11:14:36.958Z,18.12
2023-04-27T11:17:10.163Z,18.65
2023-04-27T11:19:47.361Z,19.06
2023-04-27T11:22:20.208Z,18.90
2023-04-27T11:24:54.101Z,19.50
2023-04-27T11:27:38.329Z,20.06
2023-04-27T11:30:22.177Z,18.74
2023-04-27T11:32:54.958Z,18.68
2023-04-27T11:41:26.821Z,18.80
2023-04-27T11:44:08.353Z,17.78
2023-04-27T11:46:45.365Z,19.04
2023-04-27T11:49:18.344Z,18.85
2023-04-27T11:51:51.583Z,18.53
2023-04-27T11:54:29.599Z,18.63
2023-04-27T11:57:09.284Z,18.20
2023-04-27T11:59:43.616Z,19.02
2023-04-27T12:02:17.085Z,18.71
2023-04-27T12:04:50.434Z,19.08
2023-04-27T12:07:23.327Z,18.88
2023-04-27T12:09:56.136Z,18.92
2023-04-27T12:12:29.011Z,18.81
2023-04-27T12:15:03.434Z,18.39
2023-04-27T12:17:36.266Z,17.42
2023-04-27T12:20:10.191Z,18.74
2023-04-27T12:22:42.930Z,18.81
2023-04-27T12:25:17.525Z,19.90
2023-04-27T12:27:50.440Z,20.29
2023-04-27T12:30:24.897Z,19.61
2023-04-27T12:32:59.588Z,20.19
2023-04-27T12:35:32.759Z,19.23
2023-04-27T12:38:05.457Z,19.29
2023-04-27T12:40:38.841Z,18.45
2023-04-27T12:43:12.781Z,18.87
2023-04-27T12:45:46.926Z,19.07
2023-04-27T12:48:19.875Z,19.31
2023-04-27T12:50:52.783Z,19.27
2023-04-27T12:53:25.678Z,19.37
2023-04-27T12:56:00.677Z,20.35
2023-04-27T12:58:33.462Z,19.67
2023-04-27T13:01:14.738Z,20.00
2023-04-27T13:03:48.554Z,18.61
2023-04-27T13:06:22.899Z,19.80
2023-04-27T13:08:55.920Z,20.38
2023-04-27T13:11:28.795Z,20.62
2023-04-27T13:14:02.113Z,20.42
2023-04-27T13:16:36.492Z,19.98
2023-04-27T13:19:09.417Z,20.01
2023-04-27T13:21:42.267Z,19.09
2023-04-27T13:24:17.533Z,19.75
2023-04-27T13:26:50.452Z,21.03
2023-04-27T13:29:24.475Z,19.99
2023-04-27T13:31:58.919Z,19.34
2023-04-27T13:34:31.731Z,19.48
2023-04-27T13:37:04.589Z,19.61
2023-04-27T13:39:38.210Z,19.49
2023-04-27T13:42:11.462Z,19.98
2023-04-27T13:44:44.319Z,20.13
2023-04-27T13:47:18.614Z,19.43
2023-04-27T13:49:51.366Z,20.12
2023-04-27T13:52:24.130Z,20.50
2023-04-27T13:54:57.007Z,19.12
2023-04-27T13:57:29.740Z,19.72
2023-04-27T14:00:03.412Z,19.76
2023-04-27T14:02:43.026Z,19.59
2023-04-27T14:05:15.879Z,19.69
2023-04-27T14:07:48.646Z,20.37
2023-04-27T14:10:21.462Z,19.46
2023-04-27T14:12:54.247Z,19.67
2023-04-27T14:15:27.504Z,19.81
2023-04-27T14:18:01.719Z,20.09
2023-04-27T14:20:34.648Z,19.65
2023-04-27T14:23:07.517Z,19.80
2023-04-27T14:25:40.273Z,19.91
2023-04-27T14:28:15.191Z,20.36
2023-04-27T14:30:48.303Z,19.92
2023-04-27T14:33:22.395Z,19.75
2023-04-27T14:35:56.232Z,19.91
2023-04-27T14:38:29.020Z,19.62
2023-04-27T14:41:04.455Z,20.39
2023-04-27T14:43:37.148Z,20.14
2023-04-27T14:46:20.341Z,20.58
2023-04-27T14:48:55.287Z,21.03
2023-04-27T14:51:28.803Z,20.96
2023-04-27T14:54:02.297Z,20.74
2023-04-27T14:56:35.132Z,20.61
2023-04-27T14:59:07.952Z,20.03
2023-04-27T15:01:40.756Z,20.43
2023-04-27T15:04:15.118Z,20.39
2023-04-27T15:06:48.008Z,20.52
2023-04-27T15:09:20.964Z,19.95
2023-04-27T15:11:53.802Z,20.37
2023-04-27T15:14:26.702Z,20.70
2023-04-27T15:16:59.540Z,19.77
2023-04-27T15:19:33.917Z,19.92
2023-04-27T15:22:07.167Z,19.98
2023-04-27T15:24:40.409Z,19.98
2023-04-27T15:27:13.386Z,19.62
2023-04-27T15:29:46.275Z,19.73
2023-04-27T15:32:19.153Z,18.75
2023-04-27T15:34:53.220Z,19.34
2023-04-27T15:37:26.712Z,19.69
2023-04-27T15:39:59.470Z,19.42
2023-04-27T15:42:32.269Z,19.59
2023-04-27T15:45:06.301Z,19.83
2023-04-27T15:47:40.336Z,19.55
2023-04-27T15:50:14.624Z,20.11
2023-04-27T15:52:47.716Z,20.11
2023-04-27T15:55:20.985Z,19.78
2023-04-27T15:57:54.380Z,19.91
2023-04-27T16:00:27.409Z,19.76
2023-04-27T16:03:00.632Z,19.21
2023-04-27T16:05:35.014Z,18.58
2023-04-27T16:08:07.901Z,18.88
2023-04-27T16:10:40.803Z,19.48
2023-04-27T16:13:13.674Z,19.41
2023-04-27T16:15:46.391Z,19.87
2023-04-27T16:18:19.184Z,19.60
2023-04-27T16:20:53.457Z,19.86
2023-04-27T16:23:26.454Z,19.69
2023-04-27T16:25:59.190Z,19.28
2023-04-27T16:28:32.806Z,18.96
2023-04-27T16:31:05.699Z,18.77
2023-04-27T16:33:38.583Z,19.50
2023-04-27T16:36:12.740Z,19.44
2023-04-27T16:38:46.295Z,19.02
2023-04-27T16:41:19.217Z,18.82
2023-04-27T16:43:52.114Z,18.89
2023-04-27T16:46:24.946Z,18.45
2023-04-27T16:48:57.798Z,18.54
2023-04-27T16:51:32.512Z,18.80
2023-04-27T16:54:05.278Z,18.53
2023-04-27T16:56:38.146Z,18.97
2023-04-27T16:59:12.748Z,18.66
2023-04-27T17:01:45.739Z,18.25
2023-04-27T17:04:18.705Z,18.59
2023-04-27T17:06:52.912Z,17.81
2023-04-27T17:13:45.108Z,18.52
2023-04-27T17:16:18.170Z,17.56
2023-04-27T17:18:52.098Z,17.97
2023-04-27T17:21:25.124Z,17.74
2023-04-27T17:23:59.274Z,17.53
2023-04-27T17:26:32.708Z,17.46
2023-04-27T17:29:05.641Z,17.12
2023-04-27T17:31:38.467Z,17.40
2023-04-27T17:34:12.204Z,17.90
2023-04-27T17:36:45.171Z,17.87
2023-04-27T17:39:22.675Z,17.92
2023-04-27T17:41:56.829Z,17.32
2023-04-27T17:44:29.677Z,16.98
2023-04-27T17:47:02.489Z,17.52
2023-04-27T17:49:35.398Z,17.65
2023-04-27T17:52:08.200Z,17.45
2023-04-27T17:54:43.288Z,17.71
2023-04-27T17:57:16.145Z,17.43
2023-04-27T17:59:50.001Z,17.64
2023-04-27T18:02:23.195Z,17.54
2023-04-27T18:04:56.359Z,17.44
2023-04-27T18:07:29.198Z,17.36
2023-04-27T18:10:03.841Z,17.12
2023-04-27T18:12:36.760Z,16.91
2023-04-27T18:15:37.994Z,16.57
2023-04-27T18:18:23.229Z,16.28
2023-04-27T18:20:58.474Z,15.77
2023-04-27T18:23:44.110Z,15.70
2023-04-27T18:27:38.116Z,15.53
2023-04-27T18:30:32.035Z,14.97
2023-04-27T18:33:07.877Z,15.25
2023-04-27T18:35:41.998Z,15.15
2023-04-27T18:38:14.848Z,15.10
2023-04-27T18:40:47.693Z,14.88
2023-04-27T18:43:20.651Z,14.72
2023-04-27T18:45:54.879Z,14.61
2023-04-27T18:48:27.828Z,14.66
2023-04-27T18:51:00.697Z,14.55
2023-04-27T18:53:33.582Z,14.51
2023-04-27T18:56:08.045Z,14.22
2023-04-27T18:58:41.870Z,14.23
2023-04-27T19:01:21.246Z,14.09
2023-04-27T19:03:55.027Z,14.12
2023-04-27T19:06:27.941Z,13.74
2023-04-27T19:09:00.853Z,13.34
2023-04-27T19:11:33.837Z,13.30
2023-04-27T19:14:06.879Z,12.84
2023-04-27T19:16:43.788Z,13.23
2023-04-27T19:19:19.235Z,12.66
2023-04-27T19:21:53.727Z,12.36
2023-04-27T19:24:27.460Z,12.48
2023-04-27T19:30:02.595Z,11.85
2023-04-27T19:32:37.887Z,12.13
2023-04-27T19:35:12.663Z,12.25
2023-04-27T19:37:46.063Z,11.99
2023-04-27T19:40:19.619Z,11.65
2023-04-27T19:42:53.474Z,11.44
2023-04-27T19:45:27.795Z,11.70
2023-04-27T19:48:02.380Z,11.67
2023-04-27T19:50:35.883Z,11.46
2023-04-27T19:53:09.690Z,11.81
2023-04-27T19:55:42.607Z,11.77
2023-04-27T19:58:15.400Z,11.87
2023-04-27T20:00:48.242Z,11.78
2023-04-27T20:03:22.992Z,11.20
2023-04-27T20:05:56.449Z,11.37
2023-04-27T20:08:29.432Z,11.51
2023-04-27T20:11:02.282Z,11.28
2023-04-27T20:13:35.075Z,11.48
2023-04-27T20:16:09.889Z,11.26
2023-04-27T20:18:45.237Z,11.57
2023-04-27T20:21:18.331Z,11.34
2023-04-27T20:23:51.555Z,11.35
2023-04-27T20:26:24.447Z,11.31
2023-04-27T20:28:57.289Z,10.66
2023-04-27T20:31:30.223Z,10.84
2023-04-27T20:34:04.322Z,11.00
2023-04-27T20:36:37.115Z,10.70
2023-04-27T20:39:11.907Z,10.73
2023-04-27T20:41:44.824Z,10.63
2023-04-27T20:44:18.011Z,10.59
2023-04-27T20:46:50.855Z,10.24
2023-04-27T20:49:34.325Z,10.04
2023-04-27T20:52:08.251Z,9.91
2023-04-27T20:54:41.443Z,10.39
2023-04-27T20:57:14.510Z,10.22
2023-04-27T20:59:47.380Z,10.11
2023-04-27T21:02:20.221Z,10.02
2023-04-27T21:04:54.484Z,9.86
2023-04-27T21:07:27.455Z,10.28
2023-04-27T21:10:06.247Z,10.18
2023-04-27T21:12:39.313Z,10.31
2023-04-27T21:15:12.727Z,10.43
2023-04-27T21:17:45.644Z,10.40
2023-04-27T21:20:20.089Z,10.21
2023-04-27T21:22:53.026Z,10.07
2023-04-27T21:25:26.093Z,9.79
2023-04-27T21:27:58.881Z,10.03
2023-04-27T21:30:31.664Z,9.88
2023-04-27T21:33:04.720Z,9.96
2023-04-27T21:35:39.285Z,9.96
2023-04-27T21:38:12.416Z,9.94
2023-04-27T21:40:45.268Z,9.99
2023-04-27T21:43:18.125Z,10.22
2023-04-27T21:45:50.895Z,9.97
2023-04-27T21:48:23.950Z,10.10
2023-04-27T21:50:58.202Z,10.20
2023-04-27T21:53:31.495Z,10.12
2023-04-27T21:56:04.359Z,9.94
2023-04-27T21:58:37.046Z,10.20
2023-04-27T22:01:10.333Z,10.36
2023-04-27T22:03:43.336Z,9.96
2023-04-27T22:06:17.774Z,10.20
2023-04-27T22:08:50.895Z,9.91
2023-04-27T22:11:23.717Z,10.25
2023-04-27T22:13:57.420Z,9.88
2023-04-27T22:16:30.477Z,10.06
2023-04-27T22:19:03.778Z,10.13
2023-04-27T22:21:37.982Z,10.17
2023-04-27T22:24:10.800Z,10.30
2023-04-27T22:26:43.625Z,9.85
2023-04-27T22:29:16.884Z,9.97
2023-04-27T22:31:49.782Z,10.06
2023-04-27T22:34:22.719Z,10.22
2023-04-27T22:36:56.968Z,10.04
2023-04-27T22:39:31.625Z,9.92
2023-04-27T22:42:04.530Z,9.97
2023-04-27T22:44:37.312Z,10.35
2023-04-27T22:47:10.794Z,10.19
2023-04-27T22:49:43.640Z,9.95
2023-04-27T22:52:18.020Z,9.84
2023-04-27T22:54:50.853Z,9.41
2023-04-27T22:57:23.731Z,10.02
2023-04-27T22:59:56.511Z,9.97
2023-04-27T23:02:29.780Z,10.01
2023-04-27T23:05:02.688Z,9.89
2023-04-27T23:07:37.112Z,9.90
2023-04-27T23:10:11.105Z,9.92
2023-04-27T23:12:44.031Z,9.99
2023-04-27T23:15:16.969Z,10.00
2023-04-27T23:17:49.896Z,10.06
2023-04-27T23:22:59.748Z,10.06
2023-04-27T23:25:33.550Z,9.89
2023-04-27T23:28:06.690Z,9.62
2023-04-27T23:30:39.546Z,9.79
2023-04-27T23:33:12.947Z,9.67
2023-04-27T23:35:45.815Z,9.79
2023-04-27T23:38:20.157Z,9.81
2023-04-27T23:40:52.960Z,9.52
2023-04-27T23:43:26.011Z,9.51
2023-04-27T23:45:59.107Z,9.75
2023-04-27T23:48:31.890Z,9.73
2023-04-27T23:51:05.763Z,9.73
2023-04-27T23:53:39.879Z,9.61
2023-04-27T23:56:17.490Z,9.84
2023-04-27T23:58:50.391Z,9.90
